Home > Products > Valid Products > TAF

000
FTUS41 KPHI 251129
TAFMIV
TAF
KMIV 251129Z 2512/2612 30004KT P6SM BKN200
     FM251700 28007KT P6SM BKN150
     FM252100 22004KT P6SM BKN130
     FM260400 01003KT P6SM VCSH OVC080=



000
FTUS41 KPHI 251129
TAFPNE
TAF
KPNE 251129Z 2512/2612 28007KT P6SM BKN200
     FM251700 28008G15KT P6SM BKN150
     FM260000 25003KT P6SM SCT150
     FM260400 36003KT P6SM OVC120
     FM260900 03008KT P6SM OVC120=



000
FTUS41 KPHI 251129
TAFTTN
TAF
KTTN 251129Z 2512/2612 28005KT P6SM SCT200
     FM251800 31008G16KT P6SM SCT200
     FM260000 26003KT P6SM SCT150
     FM260600 02005KT P6SM BKN150=



000
FTUS41 KPHI 251129
TAFPHL
TAF
KPHL 251129Z 2512/2618 29008KT P6SM BKN200
     FM251600 27009G15KT P6SM BKN150
     FM260000 24005KT P6SM SCT150
     FM260300 VRB03KT P6SM OVC120
     FM260900 02008KT P6SM OVC120
     FM261300 04008KT P6SM SCT200=



000
FTUS41 KPHI 251129
TAFACY
TAF
KACY 251129Z 2512/2612 28005KT P6SM BKN200
     FM251700 27008KT P6SM BKN150
     FM252100 19008KT P6SM SCT150
     FM260500 36004KT P6SM OVC100=



000
FTUS41 KPHI 251129
TAFILG
TAF
KILG 251129Z 2512/2612 31006KT P6SM BKN200
     FM251700 28008KT P6SM BKN150
     FM252100 20008KT P6SM SCT150
     FM260400 VRB03KT P6SM OVC090
     FM260800 36007KT P6SM OVC120=



000
FTUS41 KPHI 251129
TAFRDG
TAF
KRDG 251129Z 2512/2612 28006KT P6SM BKN200
     FM251700 29007G15KT P6SM BKN150
     FM260000 VRB03KT P6SM BKN150=



000
FTUS41 KPHI 251129
TAFABE
TAF
KABE 251129Z 2512/2612 24004KT P6SM BKN200
     FM251700 29008G15KT P6SM SCT200
     FM260000 00000KT P6SM SCT200=



000
FTUS41 KPHI 250914 AAA
TAFPHL
TAF AMD
KPHL 250914Z 2509/2612 28007KT P6SM SCT250
     FM251300 29007KT P6SM BKN200
     FM251600 28009G16KT P6SM BKN150
     FM260000 25005KT P6SM BKN150
     FM260300 24005KT P6SM OVC120
     FM260900 02007KT P6SM OVC150=



000
FTUS41 KPHI 250532
TAFRDG
TAF
KRDG 250532Z 2506/2606 VRB03KT P6SM SKC
     FM251100 30003KT P6SM BKN150
     FM251700 29007G15KT P6SM SCT150
     FM260000 VRB03KT P6SM BKN150=



000
FTUS41 KPHI 250532
TAFMIV
TAF
KMIV 250532Z 2506/2606 VRB03KT P6SM SKC
     FM251100 31003KT P6SM BKN150
     FM251700 28007KT P6SM BKN150
     FM252100 24005KT P6SM BKN150
     FM260400 00000KT P6SM VCSH OVC090=



000
FTUS41 KPHI 250532
TAFTTN
TAF
KTTN 250532Z 2506/2606 VRB03KT P6SM SKC
     FM251200 31005KT P6SM BKN200
     FM251800 31008G16KT P6SM SCT200
     FM260000 26003KT P6SM SCT150=



000
FTUS41 KPHI 250532
TAFILG
TAF
KILG 250532Z 2506/2606 01006KT P6SM SKC
     FM251000 31004KT P6SM BKN150
     FM251700 28007G14KT P6SM BKN150
     FM252100 24008KT P6SM BKN150
     FM260400 24003KT P6SM OVC100=



000
FTUS41 KPHI 250532
TAFABE
TAF
KABE 250532Z 2506/2606 31003KT P6SM SKC
     FM251200 27004KT P6SM BKN200
     FM251700 29008G15KT P6SM SCT200
     FM260000 00000KT P6SM SCT200=



000
FTUS41 KPHI 250532
TAFACY
TAF
KACY 250532Z 2506/2606 VRB03KT P6SM SKC
     FM251200 31006KT P6SM BKN150
     FM251700 27008KT P6SM BKN150
     FM252100 20008KT P6SM SCT150
     FM260500 26004KT P6SM OVC120=



000
FTUS41 KPHI 250532
TAFPHL
TAF
KPHL 250532Z 2506/2612 35008KT P6SM SKC
     FM251100 31007KT P6SM BKN150
     FM251700 28009G16KT P6SM BKN150
     FM260000 25005KT P6SM BKN150
     FM260300 24005KT P6SM OVC120
     FM260900 02007KT P6SM OVC150=



000
FTUS41 KPHI 250532
TAFPNE
TAF
KPNE 250532Z 2506/2606 35005KT P6SM SKC
     FM251100 31007KT P6SM BKN150
     FM251700 29008G15KT P6SM BKN150
     FM260000 25003KT P6SM BKN150=



000
FTUS41 KPHI 242348
TAFILG
TAF
KILG 242348Z 2500/2524 31009G18KT P6SM FEW090
     FM250100 31008KT P6SM SKC
     FM250600 29004KT P6SM OVC180
     FM251500 28009G16KT P6SM BKN120=



000
FTUS41 KPHI 242348
TAFACY
TAF
KACY 242348Z 2500/2524 29012KT P6SM FEW090
     FM250200 30006KT P6SM SCT180
     FM251500 28007G15KT P6SM BKN120=



000
FTUS41 KPHI 242348
TAFTTN
TAF
KTTN 242348Z 2500/2524 32007KT P6SM SKC
     FM251600 29008G16KT P6SM BKN180=



000
FTUS41 KPHI 242348
TAFPHL
TAF
KPHL 242348Z 2500/2606 30013G20KT P6SM SCT250
     FM250100 31011KT P6SM SKC
     FM250700 29006KT P6SM BKN180
     FM251500 29009G16KT P6SM BKN180
     FM260000 25005KT P6SM BKN100 OVC150=



000
FTUS41 KPHI 242348
TAFABE
TAF
KABE 242348Z 2500/2524 33012G18KT P6SM SKC
     FM250100 31007KT P6SM SKC
     FM251600 29008G15KT P6SM BKN180=



000
FTUS41 KPHI 242348
TAFRDG
TAF
KRDG 242348Z 2500/2524 31012G22KT P6SM SKC
     FM250100 30008KT P6SM SKC
     FM251600 29007G15KT P6SM BKN180=



000
FTUS41 KPHI 242348
TAFPNE
TAF
KPNE 242348Z 2500/2524 29013G21KT P6SM SKC
     FM250100 31011KT P6SM SKC
     FM250700 29004KT P6SM SCT180
     FM251500 29008G15KT P6SM BKN180=



000
FTUS41 KPHI 242348
TAFMIV
TAF
KMIV 242348Z 2500/2524 31011G18KT P6SM SKC
     FM250100 30008KT P6SM SKC
     FM250300 30003KT P6SM BKN180
     FM251500 28007G15KT P6SM BKN120=



000
FTUS41 KPHI 242106 AAB
TAFPHL
TAF AMD
KPHL 242106Z 2421/2524 30016G26KT P6SM FEW080
     FM242300 30012G20KT P6SM SKC
     FM250100 31008KT P6SM SKC
     FM251600 29010G17KT P6SM SCT150=



000
FTUS41 KPHI 242050 AAA
TAFPHL
TAF AMD
KPHL 242050Z 2421/2524 32016G26KT P6SM FEW080
     FM242300 30012G20KT P6SM SKC
     FM250100 31008KT P6SM SKC
     FM251600 29010G17KT P6SM SCT150=



000
FTUS41 KPHI 241720
TAFILG
TAF
KILG 241720Z 2418/2518 31015G25KT P6SM SKC
     FM250100 31008KT P6SM FEW150=



000
FTUS41 KPHI 241720
TAFABE
TAF
KABE 241720Z 2418/2518 31012G22KT P6SM FEW060
     FM250100 30008KT P6SM FEW150=



000
FTUS41 KPHI 241720
TAFTTN
TAF
KTTN 241720Z 2418/2518 33015G25KT P6SM FEW060
     FM250000 32008KT P6SM FEW150=



000
FTUS41 KPHI 241720
TAFPHL
TAF
KPHL 241720Z 2418/2524 31015G25KT P6SM FEW060
     FM250100 31008KT P6SM SKC
     FM251600 29010G17KT P6SM SCT150=



000
FTUS41 KPHI 241720
TAFRDG
TAF
KRDG 241720Z 2418/2518 30018G28KT P6SM FEW060
     FM250000 31008KT P6SM FEW150=



000
FTUS41 KPHI 241720
TAFPNE
TAF
KPNE 241720Z 2418/2518 31011G22KT P6SM FEW060
     FM250100 31008KT P6SM SKC=



000
FTUS41 KPHI 241720
TAFACY
TAF
KACY 241720Z 2418/2518 30015G25KT P6SM FEW060
     FM250100 31008KT P6SM FEW150=



000
FTUS41 KPHI 241720
TAFPHL
TAF
KPHL 241720Z 2418/2524 31015G25KT P6SM FEW060
     FM250100 31008KT P6SM SKC
     FM251600 29010G17KT P6SM SCT150=



000
FTUS41 KPHI 241720
TAFTTN
TAF
KTTN 241720Z 2418/2518 33015G25KT P6SM FEW060
     FM250000 32008KT P6SM FEW150=



000
FTUS41 KPHI 241720
TAFACY
TAF
KACY 241720Z 2418/2518 30015G25KT P6SM FEW060
     FM250100 31008KT P6SM FEW150=



000
FTUS41 KPHI 241720
TAFABE
TAF
KABE 241720Z 2418/2518 31012G22KT P6SM FEW060
     FM250100 30008KT P6SM FEW150=



000
FTUS41 KPHI 241720
TAFMIV
TAF
KMIV 241720Z 2418/2518 30015G25KT P6SM FEW060
     FM250000 31007KT P6SM FEW150=



000
FTUS41 KPHI 241720
TAFRDG
TAF
KRDG 241720Z 2418/2518 30018G28KT P6SM FEW060
     FM250000 31008KT P6SM FEW150=



000
FTUS41 KPHI 241720
TAFILG
TAF
KILG 241720Z 2418/2518 31015G25KT P6SM SKC
     FM250100 31008KT P6SM FEW150=



000
FTUS41 KPHI 241720
TAFPNE
TAF
KPNE 241720Z 2418/2518 31011G22KT P6SM FEW060
     FM250100 31008KT P6SM SKC=



000
FTUS41 KPHI 241720
TAFMIV
TAF
KMIV 241720Z 2418/2518 30015G25KT P6SM FEW060
     FM250000 31007KT P6SM FEW150=



000
FTUS41 KPHI 241452 AAA
TAFPHL
TAF AMD
KPHL 241452Z 2415/2518 31018G28KT P6SM SCT060
     FM250200 31012KT P6SM SKC=



000
FTUS41 KPHI 241402 AAA
TAFTTN
TAF AMD
KTTN 241402Z 2414/2512 33016G26KT P6SM FEW050
     FM250100 33010KT P6SM SKC
     FM250500 31004KT P6SM SKC=



000
FTUS41 KPHI 241401 AAA
TAFABE
TAF AMD
KABE 241401Z 2414/2512 31018G28KT P6SM FEW050
     FM250100 31010KT P6SM SKC
     FM250500 29004KT P6SM SKC=



000
FTUS41 KPHI 241359 AAA
TAFRDG
TAF AMD
KRDG 241359Z 2414/2512 30020G30KT P6SM FEW060
     FM250100 31010KT P6SM SKC
     FM250600 30004KT P6SM SKC=



000
FTUS41 KPHI 241120
TAFTTN
TAF
KTTN 241120Z 2412/2512 30011G22KT P6SM BKN045
     FM241600 32016G25KT P6SM BKN060
     FM250100 33010KT P6SM SKC
     FM250500 31004KT P6SM SKC=



000
FTUS41 KPHI 241120
TAFABE
TAF
KABE 241120Z 2412/2512 29010G18KT P6SM BKN045
     FM241500 30016G24KT P6SM BKN060
     FM250100 31010KT P6SM SKC
     FM250500 29004KT P6SM SKC=



000
FTUS41 KPHI 241120
TAFILG
TAF
KILG 241120Z 2412/2512 31012G18KT P6SM BKN045
     FM241500 31019G28KT P6SM SCT060
     FM250200 31010KT P6SM SKC
     FM250600 31004KT P6SM SKC=



000
FTUS41 KPHI 241120
TAFTTN
TAF
KTTN 241120Z 2412/2512 30011G22KT P6SM BKN045
     FM241600 32016G25KT P6SM BKN060
     FM250100 33010KT P6SM SKC
     FM250500 31004KT P6SM SKC=



000
FTUS41 KPHI 241120
TAFMIV
TAF
KMIV 241120Z 2412/2512 30008G18KT P6SM BKN045
     FM241500 31018G27KT P6SM SCT060
     FM250100 31010KT P6SM SKC
     FM250500 30004KT P6SM SKC=



000
FTUS41 KPHI 241120
TAFRDG
TAF
KRDG 241120Z 2412/2512 30012G18KT P6SM BKN045
     FM241500 30016G26KT P6SM BKN060
     FM250100 31010KT P6SM SKC
     FM250600 30004KT P6SM SKC=



000
FTUS41 KPHI 241120
TAFPNE
TAF
KPNE 241120Z 2412/2512 30011G22KT P6SM BKN045
     FM241500 31016G26KT P6SM SCT060
     FM250200 31010KT P6SM SKC
     FM250600 30004KT P6SM SKC=



000
FTUS41 KPHI 241120
TAFACY
TAF
KACY 241120Z 2412/2512 30011G22KT P6SM BKN045
     FM241500 31018G28KT P6SM SCT060
     FM250100 31010KT P6SM SKC
     FM250600 30004KT P6SM SKC=



000
FTUS41 KPHI 241120
TAFRDG
TAF
KRDG 241120Z 2412/2512 30012G18KT P6SM BKN045
     FM241500 30016G26KT P6SM BKN060
     FM250100 31010KT P6SM SKC
     FM250600 30004KT P6SM SKC=



000
FTUS41 KPHI 241120
TAFMIV
TAF
KMIV 241120Z 2412/2512 30008G18KT P6SM BKN045
     FM241500 31018G27KT P6SM SCT060
     FM250100 31010KT P6SM SKC
     FM250500 30004KT P6SM SKC=



000
FTUS41 KPHI 241120
TAFPHL
TAF
KPHL 241120Z 2412/2518 31014G24KT P6SM BKN045
     FM241500 31018G28KT P6SM SCT060
     FM250200 31012KT P6SM SKC=



000
FTUS41 KPHI 241120
TAFILG
TAF
KILG 241120Z 2412/2512 31012G18KT P6SM BKN045
     FM241500 31019G28KT P6SM SCT060
     FM250200 31010KT P6SM SKC
     FM250600 31004KT P6SM SKC=



000
FTUS41 KPHI 241120
TAFPNE
TAF
KPNE 241120Z 2412/2512 30011G22KT P6SM BKN045
     FM241500 31016G26KT P6SM SCT060
     FM250200 31010KT P6SM SKC
     FM250600 30004KT P6SM SKC=



000
FTUS41 KPHI 241120
TAFABE
TAF
KABE 241120Z 2412/2512 29010G18KT P6SM BKN045
     FM241500 30016G24KT P6SM BKN060
     FM250100 31010KT P6SM SKC
     FM250500 29004KT P6SM SKC=



000
FTUS41 KPHI 241120
TAFPHL
TAF
KPHL 241120Z 2412/2518 31014G24KT P6SM BKN045
     FM241500 31018G28KT P6SM SCT060
     FM250200 31012KT P6SM SKC=



000
FTUS41 KPHI 241120
TAFACY
TAF
KACY 241120Z 2412/2512 30011G22KT P6SM BKN045
     FM241500 31018G28KT P6SM SCT060
     FM250100 31010KT P6SM SKC
     FM250600 30004KT P6SM SKC=



000
FTUS41 KPHI 240903 AAA
TAFPHL
TAF AMD
KPHL 240903Z 2409/2512 31012G20KT P6SM BKN045
     FM241500 31018G28KT P6SM SCT060
     FM250200 31012KT P6SM SKC=



000
FTUS41 KPHI 240535
TAFPHL
TAF
KPHL 240535Z 2406/2512 31011G18KT P6SM BKN050
     FM241500 31018G28KT P6SM SCT060
     FM250200 31012KT P6SM SKC=



000
FTUS41 KPHI 240535
TAFABE
TAF
KABE 240535Z 2406/2506 29010G18KT P6SM BKN050
     FM241500 30016G24KT P6SM BKN050
     FM250100 31010KT P6SM SKC=



000
FTUS41 KPHI 240535
TAFPNE
TAF
KPNE 240535Z 2406/2506 30008G18KT P6SM BKN050
     FM241500 31016G26KT P6SM SCT060
     FM250200 31010KT P6SM SKC=



000
FTUS41 KPHI 240535
TAFMIV
TAF
KMIV 240535Z 2406/2506 30008G18KT P6SM SCT090
     FM241500 31018G27KT P6SM SCT060
     FM250100 31010KT P6SM SKC=



000
FTUS41 KPHI 240535
TAFTTN
TAF
KTTN 240535Z 2406/2506 30008G16KT P6SM BKN060
     FM241600 32016G25KT P6SM BKN060
     FM250100 33010KT P6SM SKC=



000
FTUS41 KPHI 240535
TAFILG
TAF
KILG 240535Z 2406/2506 31012G18KT P6SM SCT060
     FM241500 31019G28KT P6SM SCT060
     FM250200 31010KT P6SM SKC=



000
FTUS41 KPHI 240535
TAFRDG
TAF
KRDG 240535Z 2406/2506 30012G18KT P6SM BKN045
     FM241500 30016G26KT P6SM BKN045
     FM250100 31010KT P6SM SKC=



000
FTUS41 KPHI 240535
TAFACY
TAF
KACY 240535Z 2406/2506 30008G18KT P6SM BKN090
     FM241500 31018G28KT P6SM SCT060
     FM250100 31010KT P6SM SKC=



000
FTUS41 KPHI 240535
TAFACY
TAF
KACY 240535Z 2406/2506 30008G18KT P6SM BKN090
     FM241500 31018G28KT P6SM SCT060
     FM250100 31010KT P6SM SKC=



000
FTUS41 KPHI 232350
TAFABE
TAF
KABE 232350Z 2400/2424 29012KT P6SM OVC060
     FM240400 29008KT P6SM SCT050 BKN150
     FM241200 28012G19KT P6SM FEW050
     FM241500 30016G24KT P6SM BKN060=



000
FTUS41 KPHI 232350
TAFTTN
TAF
KTTN 232350Z 2400/2424 30011G18KT P6SM SCT040 OVC060
     FM240100 31010KT P6SM BKN060
     FM240400 30006KT P6SM FEW050 BKN150
     FM241200 29012G20KT P6SM FEW050
     FM241600 32016G25KT P6SM BKN060=



000
FTUS41 KPHI 232350
TAFACY
TAF
KACY 232350Z 2400/2424 31011KT P6SM BKN090
     FM240500 30009KT P6SM FEW080 BKN150
     FM241200 29012G21KT P6SM SKC
     FM241500 31016G26KT P6SM SCT060=



000
FTUS41 KPHI 232350
TAFPHL
TAF
KPHL 232350Z 2400/2506 29011G18KT P6SM OVC060
     FM240100 30011KT P6SM BKN060
     FM240400 30008KT P6SM FEW060 BKN150
     FM241200 29012G21KT P6SM SKC
     FM241500 31018G25KT P6SM SCT060
     FM250000 31015KT P6SM SKC=



000
FTUS41 KPHI 232350
TAFMIV
TAF
KMIV 232350Z 2400/2424 31012G18KT P6SM BKN090
     FM240100 30010KT P6SM BKN080
     FM240400 30006KT P6SM FEW080 BKN150
     FM241200 29012G21KT P6SM SKC
     FM241500 31018G25KT P6SM SCT060=



000
FTUS41 KPHI 232350
TAFILG
TAF
KILG 232350Z 2400/2424 32011KT P6SM BKN080
     FM240400 31008KT P6SM BKN150
     FM241200 30012G20KT P6SM SKC
     FM241500 31019G26KT P6SM SCT060=



000
FTUS41 KPHI 232350
TAFRDG
TAF
KRDG 232350Z 2400/2424 30012KT P6SM BKN060
     FM240400 29007KT P6SM FEW050 BKN150
     FM241200 31012G19KT P6SM FEW050
     FM241500 30016G24KT P6SM BKN060=



000
FTUS41 KPHI 232350
TAFPNE
TAF
KPNE 232350Z 2400/2424 28011G18KT P6SM OVC060
     FM240100 29011KT P6SM BKN060
     FM240400 30008KT P6SM FEW060 BKN150
     FM241200 29012G20KT P6SM SKC
     FM241500 32016G24KT P6SM SCT060=



000
FTUS41 KPHI 232350
TAFRDG
TAF
KRDG 232350Z 2400/2424 30012KT P6SM BKN060
     FM240400 29007KT P6SM FEW050 BKN150
     FM241200 31012G19KT P6SM FEW050
     FM241500 30016G24KT P6SM BKN060=



000
FTUS41 KPHI 232350
TAFACY
TAF
KACY 232350Z 2400/2424 31011KT P6SM BKN090
     FM240500 30009KT P6SM FEW080 BKN150
     FM241200 29012G21KT P6SM SKC
     FM241500 31016G26KT P6SM SCT060=



000
FTUS41 KPHI 232350
TAFPNE
TAF
KPNE 232350Z 2400/2424 28011G18KT P6SM OVC060
     FM240100 29011KT P6SM BKN060
     FM240400 30008KT P6SM FEW060 BKN150
     FM241200 29012G20KT P6SM SKC
     FM241500 32016G24KT P6SM SCT060=



000
FTUS41 KPHI 232350
TAFTTN
TAF
KTTN 232350Z 2400/2424 30011G18KT P6SM SCT040 OVC060
     FM240100 31010KT P6SM BKN060
     FM240400 30006KT P6SM FEW050 BKN150
     FM241200 29012G20KT P6SM FEW050
     FM241600 32016G25KT P6SM BKN060=



000
FTUS41 KPHI 232350
TAFABE
TAF
KABE 232350Z 2400/2424 29012KT P6SM OVC060
     FM240400 29008KT P6SM SCT050 BKN150
     FM241200 28012G19KT P6SM FEW050
     FM241500 30016G24KT P6SM BKN060=



000
FTUS41 KPHI 232350
TAFPHL
TAF
KPHL 232350Z 2400/2506 29011G18KT P6SM OVC060
     FM240100 30011KT P6SM BKN060
     FM240400 30008KT P6SM FEW060 BKN150
     FM241200 29012G21KT P6SM SKC
     FM241500 31018G25KT P6SM SCT060
     FM250000 31015KT P6SM SKC=



000
FTUS41 KPHI 232350
TAFMIV
TAF
KMIV 232350Z 2400/2424 31012G18KT P6SM BKN090
     FM240100 30010KT P6SM BKN080
     FM240400 30006KT P6SM FEW080 BKN150
     FM241200 29012G21KT P6SM SKC
     FM241500 31018G25KT P6SM SCT060=



000
FTUS41 KPHI 232350
TAFILG
TAF
KILG 232350Z 2400/2424 32011KT P6SM BKN080
     FM240400 31008KT P6SM BKN150
     FM241200 30012G20KT P6SM SKC
     FM241500 31019G26KT P6SM SCT060=



000
FTUS41 KPHI 232044 AAB
TAFPHL
TAF AMD
KPHL 232044Z 2321/2424 28015G25KT P6SM BKN070
     FM240000 29014G20KT P6SM SCT100
     FM240400 29012KT P6SM SKC
     FM241200 31015G25KT P6SM FEW040
     FM241800 30012G20KT P6SM SKC=



000
FTUS41 KPHI 231748
TAFABE
TAF
KABE 231748Z 2318/2418 27015G25KT P6SM BKN050 OVC070
     FM232200 28012G20KT P6SM SCT050 BKN070
     FM240100 29010KT P6SM SCT030 BKN080
     FM240500 29008KT P6SM SCT100
     FM240800 29007KT P6SM FEW025
     FM241200 31012G20KT P6SM FEW040=



000
FTUS41 KPHI 231748
TAFILG
TAF
KILG 231748Z 2318/2418 27016G26KT P6SM BKN050 OVC090
     FM232300 29015G25KT P6SM SCT050 BKN090
     FM240100 30012G20KT P6SM BKN100
     FM240300 30010KT P6SM SCT100
     FM240600 30010KT P6SM SKC
     FM241200 31015G25KT P6SM FEW040=



000
FTUS41 KPHI 231748
TAFRDG
TAF
KRDG 231748Z 2318/2418 27015G25KT P6SM BKN050 OVC070
     FM232200 28012G20KT P6SM SCT050 BKN070
     FM240100 29010KT P6SM SCT030 BKN080
     FM240500 29008KT P6SM SCT100
     FM240800 29007KT P6SM FEW025
     FM241200 31012G20KT P6SM FEW040=



000
FTUS41 KPHI 231748
TAFPNE
TAF
KPNE 231748Z 2318/2418 28015G25KT P6SM SCT070 BKN080
     FM232200 28014G22KT P6SM SCT070 BKN090
     FM240000 29010G18KT P6SM SCT100
     FM240400 29012KT P6SM SKC
     FM241200 31015G25KT P6SM FEW040=



000
FTUS41 KPHI 231748
TAFACY
TAF
KACY 231748Z 2318/2418 28015G25KT P6SM SCT070 BKN080
     FM232200 28014G22KT P6SM SCT050 BKN080
     FM240000 29010G18KT P6SM SCT100
     FM240600 29016KT P6SM SKC
     FM241200 31015G25KT P6SM FEW030=



000
FTUS41 KPHI 231748
TAFMIV
TAF
KMIV 231748Z 2318/2418 28015G25KT P6SM SCT070 BKN080
     FM232200 28014G22KT P6SM SCT070 BKN090
     FM240000 29010G18KT P6SM SCT100
     FM240600 29010KT P6SM SKC
     FM241200 31015G25KT P6SM FEW030=



000
FTUS41 KPHI 231748
TAFPHL
TAF
KPHL 231748Z 2318/2424 31016G26KT P6SM BKN070 BKN090
     FM232200 28015G25KT P6SM SCT070 BKN090
     FM240000 29014G20KT P6SM SCT100
     FM240400 29012KT P6SM SKC
     FM241200 31015G25KT P6SM FEW040
     FM241800 30012G20KT P6SM SKC=



000
FTUS41 KPHI 231748
TAFTTN
TAF
KTTN 231748Z 2318/2418 27012G22KT P6SM SCT045 BKN060
     FM232200 30012G20KT P6SM BKN090
     FM240100 31010KT P6SM SCT100
     FM240600 31010KT P6SM SKC
     FM241200 31012G22KT P6SM SKC=



000
FTUS41 KPHI 231748
TAFABE
TAF
KABE 231748Z 2318/2418 27015G25KT P6SM BKN050 OVC070
     FM232200 28012G20KT P6SM SCT050 BKN070
     FM240100 29010KT P6SM SCT030 BKN080
     FM240500 29008KT P6SM SCT100
     FM240800 29007KT P6SM FEW025
     FM241200 31012G20KT P6SM FEW040=



000
FTUS41 KPHI 231748
TAFILG
TAF
KILG 231748Z 2318/2418 27016G26KT P6SM BKN050 OVC090
     FM232300 29015G25KT P6SM SCT050 BKN090
     FM240100 30012G20KT P6SM BKN100
     FM240300 30010KT P6SM SCT100
     FM240600 30010KT P6SM SKC
     FM241200 31015G25KT P6SM FEW040=



000
FTUS41 KPHI 231748
TAFPNE
TAF
KPNE 231748Z 2318/2418 28015G25KT P6SM SCT070 BKN080
     FM232200 28014G22KT P6SM SCT070 BKN090
     FM240000 29010G18KT P6SM SCT100
     FM240400 29012KT P6SM SKC
     FM241200 31015G25KT P6SM FEW040=



000
FTUS41 KPHI 231748
TAFACY
TAF
KACY 231748Z 2318/2418 28015G25KT P6SM SCT070 BKN080
     FM232200 28014G22KT P6SM SCT050 BKN080
     FM240000 29010G18KT P6SM SCT100
     FM240600 29016KT P6SM SKC
     FM241200 31015G25KT P6SM FEW030=



000
FTUS41 KPHI 231748
TAFRDG
TAF
KRDG 231748Z 2318/2418 27015G25KT P6SM BKN050 OVC070
     FM232200 28012G20KT P6SM SCT050 BKN070
     FM240100 29010KT P6SM SCT030 BKN080
     FM240500 29008KT P6SM SCT100
     FM240800 29007KT P6SM FEW025
     FM241200 31012G20KT P6SM FEW040=



000
FTUS41 KPHI 231748
TAFMIV
TAF
KMIV 231748Z 2318/2418 28015G25KT P6SM SCT070 BKN080
     FM232200 28014G22KT P6SM SCT070 BKN090
     FM240000 29010G18KT P6SM SCT100
     FM240600 29010KT P6SM SKC
     FM241200 31015G25KT P6SM FEW030=



000
FTUS41 KPHI 231748
TAFTTN
TAF
KTTN 231748Z 2318/2418 27012G22KT P6SM SCT045 BKN060
     FM232200 30012G20KT P6SM BKN090
     FM240100 31010KT P6SM SCT100
     FM240600 31010KT P6SM SKC
     FM241200 31012G22KT P6SM SKC=



000
FTUS41 KPHI 231748
TAFPHL
TAF
KPHL 231748Z 2318/2424 31016G26KT P6SM BKN070 BKN090
     FM232200 28015G25KT P6SM SCT070 BKN090
     FM240000 29014G20KT P6SM SCT100
     FM240400 29012KT P6SM SKC
     FM241200 31015G25KT P6SM FEW040
     FM241800 30012G20KT P6SM SKC=



000
FTUS41 KPHI 231541 AAA
TAFPHL
TAF AMD
KPHL 231541Z 2316/2418 28015G25KT P6SM BKN050
     FM231800 28020G30KT P6SM BKN050
     FM240100 30012G20KT P6SM SCT100=



000
FTUS41 KPHI 231538 AAA
TAFRDG
TAF AMD
KRDG 231538Z 2316/2412 29015G25KT P6SM BKN050
     FM231800 28020G30KT P6SM BKN050
     FM240000 30012KT P6SM SCT080=



000
FTUS41 KPHI 231507 AAB
TAFABE
TAF AMD
KABE 231507Z 2315/2412 27015G25KT P6SM BKN050
      TEMPO 2315/2318 BKN025 OVC050
     FM231800 28020G30KT P6SM BKN050
     FM240100 28010KT P6SM SCT080=



000
FTUS41 KPHI 231507 AAB
TAFABE
TAF AMD
KABE 231507Z 2315/2412 27015G25KT P6SM BKN050
      TEMPO 2315/2318 BKN025 OVC050
     FM231800 28020G30KT P6SM BKN050
     FM240100 28010KT P6SM SCT080=



000
FTUS41 KPHI 231302 AAA
TAFABE
TAF AMD
KABE 231302Z 2313/2412 27015G25KT P6SM BKN050
     FM231800 28020G30KT P6SM BKN050
     FM240100 28010KT P6SM SCT080=



000
FTUS41 KPHI 231301 AAA
TAFTTN
TAF AMD
KTTN 231301Z 2313/2412 29015G25KT P6SM BKN050
     FM231800 30018G28KT P6SM BKN050
     FM240000 31010G18KT P6SM SCT100=



000
FTUS41 KPHI 231257 AAA
TAFACY
TAF AMD
KACY 231257Z 2313/2412 28015G25KT P6SM SCT050
     FM231800 28018G28KT P6SM BKN050
     FM240000 28010G18KT P6SM SCT100=



000
FTUS41 KPHI 231257 AAA
TAFACY
TAF AMD
KACY 231257Z 2313/2412 28015G25KT P6SM SCT050
     FM231800 28018G28KT P6SM BKN050
     FM240000 28010G18KT P6SM SCT100=



000
FTUS41 KPHI 231256 AAA
TAFMIV
TAF AMD
KMIV 231256Z 2313/2412 28015G25KT P6SM SCT050
     FM231800 29017G27KT P6SM BKN050
     FM240000 30008G18KT P6SM SCT100=



000
FTUS41 KPHI 231256 AAA
TAFMIV
TAF AMD
KMIV 231256Z 2313/2412 28015G25KT P6SM SCT050
     FM231800 29017G27KT P6SM BKN050
     FM240000 30008G18KT P6SM SCT100=



000
FTUS41 KPHI 231120
TAFABE
TAF
KABE 231120Z 2312/2412 26010KT P6SM SCT040
     FM231400 27012G20KT P6SM BKN050
     FM231800 28020G30KT P6SM BKN050
     FM240100 28010KT P6SM SCT080=



000
FTUS41 KPHI 231120
TAFILG
TAF
KILG 231120Z 2312/2412 28010KT P6SM SCT060
     FM231400 29015G25KT P6SM BKN050
     FM231800 29020G30KT P6SM BKN100
     FM240100 30010G18KT P6SM SCT100=



000
FTUS41 KPHI 231120
TAFACY
TAF
KACY 231120Z 2312/2412 29010KT P6SM SCT100
     FM231400 28012G20KT P6SM SCT050
     FM231800 28018G28KT P6SM BKN050
     FM240000 28010G18KT P6SM SCT100=



000
FTUS41 KPHI 231120
TAFABE
TAF
KABE 231120Z 2312/2412 26010KT P6SM SCT040
     FM231400 27012G20KT P6SM BKN050
     FM231800 28020G30KT P6SM BKN050
     FM240100 28010KT P6SM SCT080=



000
FTUS41 KPHI 231120
TAFILG
TAF
KILG 231120Z 2312/2412 28010KT P6SM SCT060
     FM231400 29015G25KT P6SM BKN050
     FM231800 29020G30KT P6SM BKN100
     FM240100 30010G18KT P6SM SCT100=



000
FTUS41 KPHI 231120
TAFRDG
TAF
KRDG 231120Z 2312/2412 26010KT P6SM SCT070
     FM231400 27012G20KT P6SM BKN050
     FM231800 28020G30KT P6SM BKN050
     FM240000 30012KT P6SM SCT080=



000
FTUS41 KPHI 231120
TAFPNE
TAF
KPNE 231120Z 2312/2412 27007KT P6SM SCT060
     FM231400 29012G20KT P6SM BKN050
     FM231800 28018G28KT P6SM BKN050
     FM240200 30012G18KT P6SM SCT100=



000
FTUS41 KPHI 231120
TAFACY
TAF
KACY 231120Z 2312/2412 29010KT P6SM SCT100
     FM231400 28012G20KT P6SM SCT050
     FM231800 28018G28KT P6SM BKN050
     FM240000 28010G18KT P6SM SCT100=



000
FTUS41 KPHI 231120
TAFMIV
TAF
KMIV 231120Z 2312/2412 28007KT P6SM SCT100
     FM231400 28012G20KT P6SM SCT050
     FM231800 29017G27KT P6SM BKN050
     FM240000 30008G18KT P6SM SCT100=



000
FTUS41 KPHI 231120
TAFTTN
TAF
KTTN 231120Z 2312/2412 27007KT P6SM SCT120
     FM231400 30012G20KT P6SM BKN050
     FM231800 30018G28KT P6SM BKN050
     FM240000 31010G18KT P6SM SCT100=



000
FTUS41 KPHI 231120
TAFPHL
TAF
KPHL 231120Z 2312/2418 28010KT P6SM SCT060
     FM231400 28015G25KT P6SM BKN050
     FM231800 28020G30KT P6SM BKN050
     FM240100 30012G20KT P6SM SCT100=



000
FTUS41 KPHI 231120
TAFPNE
TAF
KPNE 231120Z 2312/2412 27007KT P6SM SCT060
     FM231400 29012G20KT P6SM BKN050
     FM231800 28018G28KT P6SM BKN050
     FM240200 30012G18KT P6SM SCT100=



000
FTUS41 KPHI 231120
TAFRDG
TAF
KRDG 231120Z 2312/2412 26010KT P6SM SCT070
     FM231400 27012G20KT P6SM BKN050
     FM231800 28020G30KT P6SM BKN050
     FM240000 30012KT P6SM SCT080=



000
FTUS41 KPHI 231120
TAFMIV
TAF
KMIV 231120Z 2312/2412 28007KT P6SM SCT100
     FM231400 28012G20KT P6SM SCT050
     FM231800 29017G27KT P6SM BKN050
     FM240000 30008G18KT P6SM SCT100=



000
FTUS41 KPHI 231120
TAFTTN
TAF
KTTN 231120Z 2312/2412 27007KT P6SM SCT120
     FM231400 30012G20KT P6SM BKN050
     FM231800 30018G28KT P6SM BKN050
     FM240000 31010G18KT P6SM SCT100=



000
FTUS41 KPHI 231120
TAFPHL
TAF
KPHL 231120Z 2312/2418 28010KT P6SM SCT060
     FM231400 28015G25KT P6SM BKN050
     FM231800 28020G30KT P6SM BKN050
     FM240100 30012G20KT P6SM SCT100=



000
FTUS41 KPHI 230902 AAA
TAFRDG
TAF AMD
KRDG 230902Z 2309/2406 28010KT P6SM SCT070
     FM231300 28012G20KT P6SM BKN050
     FM231800 28020G30KT P6SM BKN050
     FM240000 30012KT P6SM SCT080=



000
FTUS41 KPHI 230902 AAA
TAFTTN
TAF AMD
KTTN 230902Z 2309/2406 27007KT P6SM SCT120
     FM231400 30012G20KT P6SM BKN050
     FM231800 30018G28KT P6SM BKN050
     FM240000 31010G18KT P6SM SCT100=



000
FTUS41 KPHI 230902 AAA
TAFACY
TAF AMD
KACY 230902Z 2309/2406 29010KT P6SM SCT100
     FM231400 28012G20KT P6SM SCT050
     FM231800 28018G28KT P6SM BKN050
     FM240000 28010G18KT P6SM SCT100=



000
FTUS41 KPHI 230902 AAA
TAFPNE
TAF AMD
KPNE 230902Z 2309/2406 27007KT P6SM SCT060
     FM231400 29012G20KT P6SM BKN050
     FM231800 28018G28KT P6SM BKN050
     FM240200 30012G18KT P6SM SCT100=



000
FTUS41 KPHI 230902 AAA
TAFPHL
TAF AMD
KPHL 230902Z 2309/2412 27010KT P6SM SCT050
     FM231400 28015G25KT P6SM BKN050
     FM231800 28020G30KT P6SM BKN050
     FM240100 30012G20KT P6SM SCT100=



000
FTUS41 KPHI 230902 AAA
TAFMIV
TAF AMD
KMIV 230902Z 2309/2406 29007KT P6SM SCT100
     FM231400 28012G20KT P6SM SCT050
     FM231800 29017G27KT P6SM BKN050
     FM240000 30008G18KT P6SM SCT100=



000
FTUS41 KPHI 230902 AAA
TAFPHL
TAF AMD
KPHL 230902Z 2309/2412 27010KT P6SM SCT050
     FM231400 28015G25KT P6SM BKN050
     FM231800 28020G30KT P6SM BKN050
     FM240100 30012G20KT P6SM SCT100=



000
FTUS41 KPHI 230902 AAA
TAFABE
TAF AMD
KABE 230902Z 2309/2406 26010KT P6SM SCT040
     FM231400 27012G20KT P6SM BKN050
     FM231800 28020G30KT P6SM BKN050
     FM240100 28010KT P6SM SCT080=



000
FTUS41 KPHI 230902 AAA
TAFMIV
TAF AMD
KMIV 230902Z 2309/2406 29007KT P6SM SCT100
     FM231400 28012G20KT P6SM SCT050
     FM231800 29017G27KT P6SM BKN050
     FM240000 30008G18KT P6SM SCT100=



000
FTUS41 KPHI 230902 AAA
TAFTTN
TAF AMD
KTTN 230902Z 2309/2406 27007KT P6SM SCT120
     FM231400 30012G20KT P6SM BKN050
     FM231800 30018G28KT P6SM BKN050
     FM240000 31010G18KT P6SM SCT100=



000
FTUS41 KPHI 230902 AAA
TAFPNE
TAF AMD
KPNE 230902Z 2309/2406 27007KT P6SM SCT060
     FM231400 29012G20KT P6SM BKN050
     FM231800 28018G28KT P6SM BKN050
     FM240200 30012G18KT P6SM SCT100=



000
FTUS41 KPHI 230902 AAA
TAFABE
TAF AMD
KABE 230902Z 2309/2406 26010KT P6SM SCT040
     FM231400 27012G20KT P6SM BKN050
     FM231800 28020G30KT P6SM BKN050
     FM240100 28010KT P6SM SCT080=



000
FTUS41 KPHI 230902 AAA
TAFACY
TAF AMD
KACY 230902Z 2309/2406 29010KT P6SM SCT100
     FM231400 28012G20KT P6SM SCT050
     FM231800 28018G28KT P6SM BKN050
     FM240000 28010G18KT P6SM SCT100=



000
FTUS41 KPHI 230902 AAA
TAFILG
TAF AMD
KILG 230902Z 2309/2406 28010KT P6SM SCT060
     FM231400 29015G25KT P6SM BKN050
     FM231800 29020G30KT P6SM BKN100
     FM240100 30010G18KT P6SM SCT100=



000
FTUS41 KPHI 230902 AAA
TAFILG
TAF AMD
KILG 230902Z 2309/2406 28010KT P6SM SCT060
     FM231400 29015G25KT P6SM BKN050
     FM231800 29020G30KT P6SM BKN100
     FM240100 30010G18KT P6SM SCT100=



000
FTUS41 KPHI 230902 AAA
TAFRDG
TAF AMD
KRDG 230902Z 2309/2406 28010KT P6SM SCT070
     FM231300 28012G20KT P6SM BKN050
     FM231800 28020G30KT P6SM BKN050
     FM240000 30012KT P6SM SCT080=



000
FTUS41 KPHI 230530
TAFRDG
TAF
KRDG 230530Z 2306/2406 30008G16KT P6SM SCT120
     FM231300 28012G20KT P6SM BKN050
     FM231800 28020G30KT P6SM BKN050
     FM240000 30012KT P6SM SCT080=



000
FTUS41 KPHI 230530
TAFPNE
TAF
KPNE 230530Z 2306/2406 31010G18KT P6SM SCT120
     FM231400 29012G20KT P6SM BKN050
     FM231800 28018G28KT P6SM BKN050
     FM240200 30012G18KT P6SM SCT100=



000
FTUS41 KPHI 230530
TAFABE
TAF
KABE 230530Z 2306/2406 27006G16KT P6SM SCT120
     FM231400 27012G20KT P6SM BKN050
     FM231800 28020G30KT P6SM BKN050
     FM240100 28010KT P6SM SCT080=



000
FTUS41 KPHI 230530
TAFTTN
TAF
KTTN 230530Z 2306/2406 30010G20KT P6SM SCT120
     FM231400 30012G20KT P6SM BKN050
     FM231800 30018G28KT P6SM BKN050
     FM240000 31010G18KT P6SM SCT100=



000
FTUS41 KPHI 230530
TAFPHL
TAF
KPHL 230530Z 2306/2412 29010G18KT P6SM SCT120
     FM231400 28015G25KT P6SM BKN050
     FM231800 28020G30KT P6SM BKN050
     FM240100 30012G20KT P6SM SCT100=



000
FTUS41 KPHI 230530
TAFACY
TAF
KACY 230530Z 2306/2406 29010G20KT P6SM BKN100
     FM231400 28012G20KT P6SM SCT050
     FM231800 28018G28KT P6SM BKN050
     FM240000 28010G18KT P6SM SCT100=



000
FTUS41 KPHI 230530
TAFILG
TAF
KILG 230530Z 2306/2406 30010G18KT P6SM SCT120
     FM231400 29015G25KT P6SM BKN050
     FM231800 29020G30KT P6SM BKN100
     FM240100 30010G18KT P6SM SCT100=



000
FTUS41 KPHI 230530
TAFMIV
TAF
KMIV 230530Z 2306/2406 30010G20KT P6SM BKN100
     FM231400 28012G20KT P6SM SCT050
     FM231800 29017G27KT P6SM BKN050
     FM240000 30008G18KT P6SM SCT100=



000
FTUS41 KPHI 230403 AAA
TAFRDG
TAF AMD
KRDG 230403Z 2304/2324 30008G18KT P6SM SCT080
     FM231300 28012G20KT P6SM BKN050
     FM231800 28020G30KT P6SM BKN080=



000
FTUS41 KPHI 230403 AAA
TAFPNE
TAF AMD
KPNE 230403Z 2304/2324 30012G20KT P6SM SCT090
     FM231300 28012G20KT P6SM BKN050
     FM231800 28018G28KT P6SM SCT050 BKN100=



000
FTUS41 KPHI 230403 AAA
TAFPHL
TAF AMD
KPHL 230403Z 2304/2406 30012G20KT P6SM SCT120
     FM231300 28015G25KT P6SM SCT050 BKN100
     FM231800 28020G30KT P6SM BKN100
     FM240100 29012G20KT P6SM FEW100=



000
FTUS41 KPHI 230403 AAA
TAFMIV
TAF AMD
KMIV 230403Z 2304/2324 30012G20KT P6SM BKN100
     FM231300 28012G20KT P6SM SCT050
     FM231600 29017G27KT P6SM BKN100=



000
FTUS41 KPHI 230403 AAB
TAFILG
TAF AMD
KILG 230403Z 2304/2324 30010G20KT P6SM SCT070
     FM231300 29015G25KT P6SM SCT050 BKN100
     FM231800 29020G30KT P6SM BKN100=



000
FTUS41 KPHI 230403 AAA
TAFTTN
TAF AMD
KTTN 230403Z 2304/2324 29012G20KT P6SM SCT100
     FM231300 30012G20KT P6SM BKN050
     FM231800 30018G28KT P6SM BKN100=



000
FTUS41 KPHI 230403 AAB
TAFABE
TAF AMD
KABE 230403Z 2304/2324 27008G18KT P6SM SCT050
     FM231400 27012G20KT P6SM BKN050
     FM231800 28020G30KT P6SM BKN080=



000
FTUS41 KPHI 230403 AAA
TAFTTN
TAF AMD
KTTN 230403Z 2304/2324 29012G20KT P6SM SCT100
     FM231300 30012G20KT P6SM BKN050
     FM231800 30018G28KT P6SM BKN100=



000
FTUS41 KPHI 230403 AAA
TAFPNE
TAF AMD
KPNE 230403Z 2304/2324 30012G20KT P6SM SCT090
     FM231300 28012G20KT P6SM BKN050
     FM231800 28018G28KT P6SM SCT050 BKN100=



000
FTUS41 KPHI 230403 AAB
TAFILG
TAF AMD
KILG 230403Z 2304/2324 30010G20KT P6SM SCT070
     FM231300 29015G25KT P6SM SCT050 BKN100
     FM231800 29020G30KT P6SM BKN100=



000
FTUS41 KPHI 230403 AAA
TAFPHL
TAF AMD
KPHL 230403Z 2304/2406 30012G20KT P6SM SCT120
     FM231300 28015G25KT P6SM SCT050 BKN100
     FM231800 28020G30KT P6SM BKN100
     FM240100 29012G20KT P6SM FEW100=



000
FTUS41 KPHI 230403 AAB
TAFABE
TAF AMD
KABE 230403Z 2304/2324 27008G18KT P6SM SCT050
     FM231400 27012G20KT P6SM BKN050
     FM231800 28020G30KT P6SM BKN080=



000
FTUS41 KPHI 230403 AAA
TAFMIV
TAF AMD
KMIV 230403Z 2304/2324 30012G20KT P6SM BKN100
     FM231300 28012G20KT P6SM SCT050
     FM231600 29017G27KT P6SM BKN100=



000
FTUS41 KPHI 230403 AAA
TAFACY
TAF AMD
KACY 230403Z 2304/2324 29010G20KT P6SM BKN100
     FM231300 28012G20KT P6SM SCT050
     FM231700 29018G28KT P6SM BKN100=



000
FTUS41 KPHI 230056 AAA
TAFABE
TAF AMD
KABE 230056Z 2301/2324 26005KT P6SM SCT050
      TEMPO 2301/2303 BKN050
     FM231400 27012G20KT P6SM BKN050
     FM231800 28020G30KT P6SM BKN080=



000
FTUS41 KPHI 230055 AAA
TAFILG
TAF AMD
KILG 230055Z 2301/2324 29010KT P6SM SCT070
     FM231300 29015G25KT P6SM SCT050 BKN100
     FM231800 29020G30KT P6SM BKN100=



000
FTUS41 KPHI 222321
TAFRDG
TAF
KRDG 222321Z 2300/2324 28010KT P6SM BKN080
     FM230500 30008KT P6SM SCT080
     FM231300 28012G20KT P6SM BKN050
     FM231800 28020G30KT P6SM BKN080=



000
FTUS41 KPHI 222321
TAFPNE
TAF
KPNE 222321Z 2300/2324 26010KT P6SM SCT090
     FM230300 29009KT P6SM SCT090
     FM231300 28012G20KT P6SM BKN050
     FM231800 28018G28KT P6SM SCT050 BKN100=



000
FTUS41 KPHI 222321
TAFTTN
TAF
KTTN 222321Z 2300/2324 26010KT P6SM SCT100
     FM230200 27007KT P6SM SCT100
     FM231300 30012G20KT P6SM BKN050
     FM231800 30018G28KT P6SM BKN100=



000
FTUS41 KPHI 222321
TAFILG
TAF
KILG 222321Z 2300/2324 26014KT P6SM -RA FEW050 OVC070
     FM230500 28010KT P6SM SCT050
     FM231300 29015G25KT P6SM SCT050 BKN100
     FM231800 29020G30KT P6SM BKN100=



000
FTUS41 KPHI 222321
TAFACY
TAF
KACY 222321Z 2300/2324 27010KT P6SM BKN100
     FM230200 27008KT P6SM FEW100
     FM231300 28012G20KT P6SM SCT050
     FM231700 29018G28KT P6SM BKN100=



000
FTUS41 KPHI 222321
TAFABE
TAF
KABE 222321Z 2300/2324 26010G18KT P6SM SCT080
     FM230400 27007KT P6SM SCT080
     FM231400 27012G20KT P6SM BKN050
     FM231800 28020G30KT P6SM BKN080=



000
FTUS41 KPHI 222321
TAFPHL
TAF
KPHL 222321Z 2300/2406 27014KT P6SM SCT100
     FM230300 27009KT P6SM SCT100
     FM231300 28015G25KT P6SM SCT050 BKN100
     FM231800 28020G30KT P6SM BKN100
     FM240100 29012G20KT P6SM FEW100=



000
FTUS41 KPHI 222321
TAFMIV
TAF
KMIV 222321Z 2300/2324 29010KT P6SM BKN060
     FM230200 29005KT P6SM SCT080
     FM231300 28012G20KT P6SM SCT050
     FM231600 29017G27KT P6SM BKN100=



000
FTUS41 KPHI 222206 AAB
TAFMIV
TAF AMD
KMIV 222206Z 2222/2318 31012KT P6SM BKN050 BKN080
      TEMPO 2222/2224 -SHRA
     FM230200 29005KT P6SM SCT080
     FM231300 28014G24KT P6SM SCT050=



000
FTUS41 KPHI 222205 AAD
TAFPHL
TAF AMD
KPHL 222205Z 2222/2324 26010KT P6SM BKN060 BKN090
      TEMPO 2222/2224 -SHRA
     FM230300 28012KT P6SM SCT060
     FM231300 28015G25KT P6SM SCT050 BKN100
     FM232000 28020G30KT P6SM BKN050=



000
FTUS41 KPHI 222204 AAB
TAFPNE
TAF AMD
KPNE 222204Z 2222/2318 27010KT P6SM BKN060 BKN090
      TEMPO 2222/2224 -SHRA
     FM230300 28012KT P6SM SCT060
     FM231300 28015G25KT P6SM SCT050 BKN100=



000
FTUS41 KPHI 222203 AAA
TAFTTN
TAF AMD
KTTN 222203Z 2222/2318 28010KT P6SM BKN060 BKN090
      TEMPO 2222/2223 -SHRA
     FM230300 28012KT P6SM SCT060
     FM231300 28015G25KT P6SM SCT050 BKN100=



000
FTUS41 KPHI 222200 AAC
TAFABE
TAF AMD
KABE 222200Z 2222/2318 26010KT P6SM SCT050 BKN100
     FM230400 28010KT P6SM SCT100
     FM231400 27014G22KT P6SM BKN060=



000
FTUS41 KPHI 222122 AAA
TAFACY
TAF AMD
KACY 222122Z 2221/2318 28015G25KT P6SM BKN060 BKN080
      TEMPO 2221/2224 -SHRA
     FM230200 27008KT P6SM FEW060
     FM231300 28015G25KT P6SM SCT050=



000
FTUS41 KPHI 222120 AAA
TAFMIV
TAF AMD
KMIV 222120Z 2221/2318 30012G20KT P6SM BKN050 BKN080
      TEMPO 2221/2223 -SHRA
     FM230200 29005KT P6SM SCT080
     FM231300 28014G24KT P6SM SCT050=



000
FTUS41 KPHI 222110 AAA
TAFILG
TAF AMD
KILG 222110Z 2221/2318 29015G22KT P6SM BKN060 BKN090
      TEMPO 2221/2223 -SHRA
     FM230500 28010KT P6SM SCT050
     FM231300 29015G25KT P6SM SCT050 BKN100=



000
FTUS41 KPHI 222110 AAA
TAFILG
TAF AMD
KILG 222110Z 2221/2318 29015G22KT P6SM BKN060 BKN090
      TEMPO 2221/2223 -SHRA
     FM230500 28010KT P6SM SCT050
     FM231300 29015G25KT P6SM SCT050 BKN100=



000
FTUS41 KPHI 222106 AAA
TAFPNE
TAF AMD
KPNE 222106Z 2221/2318 28012G20KT P6SM BKN060 BKN090
      TEMPO 2221/2223 -SHRA
     FM230300 28012KT P6SM SCT060
     FM231300 28015G25KT P6SM SCT050 BKN100=



000
FTUS41 KPHI 222106 AAA
TAFPNE
TAF AMD
KPNE 222106Z 2221/2318 28012G20KT P6SM BKN060 BKN090
      TEMPO 2221/2223 -SHRA
     FM230300 28012KT P6SM SCT060
     FM231300 28015G25KT P6SM SCT050 BKN100=



000
FTUS41 KPHI 222105 AAC
TAFPHL
TAF AMD
KPHL 222105Z 2221/2324 28012G20KT P6SM BKN060 BKN090
      TEMPO 2221/2223 -SHRA
     FM230300 28012KT P6SM SCT060
     FM231300 28015G25KT P6SM SCT050 BKN100
     FM232000 28020G30KT P6SM BKN050=



000
FTUS41 KPHI 222100 AAB
TAFABE
TAF AMD
KABE 222100Z 2221/2318 27012G20KT P6SM BKN050 BKN080
      TEMPO 2221/2222 -SHRA
     FM230400 28010KT P6SM SCT060
     FM231400 27014G22KT P6SM BKN060=



000
FTUS41 KPHI 222100 AAB
TAFABE
TAF AMD
KABE 222100Z 2221/2318 27012G20KT P6SM BKN050 BKN080
      TEMPO 2221/2222 -SHRA
     FM230400 28010KT P6SM SCT060
     FM231400 27014G22KT P6SM BKN060=



000
FTUS41 KPHI 222058 AAB
TAFRDG
TAF AMD
KRDG 222058Z 2221/2318 27012KT P6SM BKN050 BKN080
     FM230400 30010KT P6SM SCT060
     FM231300 28012G22KT P6SM BKN050=



000
FTUS41 KPHI 222008 AAB
TAFPHL
TAF AMD
KPHL 222008Z 2220/2324 30010G20KT P6SM SCT060
      TEMPO 2220/2222 5SM SHRA BKN030
     FM230400 28012KT P6SM FEW060
     FM231200 28017G27KT P6SM SCT050=



000
FTUS41 KPHI 221954 AAA
TAFABE
TAF AMD
KABE 221954Z 2220/2318 27010G16KT P6SM SCT060
      TEMPO 2220/2222 5SM -SHRA BKN030
     FM230000 26010KT P6SM FEW060
     FM231400 27014G24KT P6SM SCT060=



000
FTUS41 KPHI 221953 AAA
TAFRDG
TAF AMD
KRDG 221953Z 2220/2318 27010G16KT P6SM SCT060
      TEMPO 2220/2222 5SM -SHRA BKN030
     FM230000 28011KT P6SM FEW060
     FM231300 18014G23KT P6SM SCT060=



000
FTUS41 KPHI 221953 AAA
TAFRDG
TAF AMD
KRDG 221953Z 2220/2318 27010G16KT P6SM SCT060
      TEMPO 2220/2222 5SM -SHRA BKN030
     FM230000 28011KT P6SM FEW060
     FM231300 18014G23KT P6SM SCT060=



000
FTUS41 KPHI 221823 AAA
TAFPHL
TAF AMD
KPHL 221823Z 2218/2324 24020G33KT P6SM BKN060
      TEMPO 2218/2221 VRB30G40KT 4SM TSRA BKN035CB
     FM222100 28015G25KT P6SM SCT060
     FM230400 28012KT P6SM FEW060
     FM231200 28017G27KT P6SM SCT050=



000
FTUS41 KPHI 221720
TAFABE
TAF
KABE 221720Z 2218/2318 23015G23KT P6SM OVC060
      TEMPO 2218/2220 VRB20G30KT 4SM TSRA BKN035CB
     FM222000 25012G20KT P6SM SCT060
     FM230000 26010KT P6SM FEW060
     FM231400 27014G24KT P6SM SCT060=



000
FTUS41 KPHI 221720
TAFTTN
TAF
KTTN 221720Z 2218/2318 24015G25KT P6SM OVC060
      TEMPO 2218/2221 VRB20G30KT 4SM TSRA OVC035CB
     FM222100 27012G22KT P6SM SCT060
     FM230200 30011KT P6SM FEW060
     FM231200 29014G23KT P6SM SCT050=



000
FTUS41 KPHI 221720
TAFACY
TAF
KACY 221720Z 2218/2318 19012G20KT P6SM BKN100
     FM221900 21015G25KT P6SM BKN060
      TEMPO 2219/2223 VRB20G30KT 4SM TSRA BKN030CB
     FM222300 26014G24KT P6SM SCT060
     FM230100 27011KT P6SM FEW060
     FM231200 28014G23KT P6SM SCT050=



000
FTUS41 KPHI 221720
TAFPNE
TAF
KPNE 221720Z 2218/2318 24014G27KT P6SM BKN060
      TEMPO 2218/2222 VRB20G33KT 5SM TSRA BKN035CB
     FM222200 28013G23KT P6SM SCT060
     FM230300 29011KT P6SM FEW060
     FM231300 28015G24KT P6SM SCT050=



000
FTUS41 KPHI 221720
TAFABE
TAF
KABE 221720Z 2218/2318 23015G23KT P6SM OVC060
      TEMPO 2218/2220 VRB20G30KT 4SM TSRA BKN035CB
     FM222000 25012G20KT P6SM SCT060
     FM230000 26010KT P6SM FEW060
     FM231400 27014G24KT P6SM SCT060=



000
FTUS41 KPHI 221720
TAFTTN
TAF
KTTN 221720Z 2218/2318 24015G25KT P6SM OVC060
      TEMPO 2218/2221 VRB20G30KT 4SM TSRA OVC035CB
     FM222100 27012G22KT P6SM SCT060
     FM230200 30011KT P6SM FEW060
     FM231200 29014G23KT P6SM SCT050=



000
FTUS41 KPHI 221720
TAFRDG
TAF
KRDG 221720Z 2218/2318 23015G24KT P6SM OVC060
      TEMPO 2218/2220 VRB20G30KT 4SM TSRA BKN035CB
     FM222000 26012G20KT P6SM SCT060
     FM230000 28011KT P6SM FEW060
     FM231300 18014G23KT P6SM SCT060=



000
FTUS41 KPHI 221720
TAFPNE
TAF
KPNE 221720Z 2218/2318 24014G27KT P6SM BKN060
      TEMPO 2218/2222 VRB20G33KT 5SM TSRA BKN035CB
     FM222200 28013G23KT P6SM SCT060
     FM230300 29011KT P6SM FEW060
     FM231300 28015G24KT P6SM SCT050=



000
FTUS41 KPHI 221720
TAFPHL
TAF
KPHL 221720Z 2218/2324 24020G33KT P6SM BKN060
      TEMPO 2218/2222 4SM TSRA BKN035CB
     FM222200 28015G25KT P6SM SCT060
     FM230400 28012KT P6SM FEW060
     FM231200 28017G27KT P6SM SCT050=



000
FTUS41 KPHI 221720
TAFPHL
TAF
KPHL 221720Z 2218/2324 24020G33KT P6SM BKN060
      TEMPO 2218/2222 4SM TSRA BKN035CB
     FM222200 28015G25KT P6SM SCT060
     FM230400 28012KT P6SM FEW060
     FM231200 28017G27KT P6SM SCT050=



000
FTUS41 KPHI 221720
TAFMIV
TAF
KMIV 221720Z 2218/2318 22014G24KT P6SM BKN060
      TEMPO 2219/2223 VRB20G30KT 4SM TSRA BKN030CB
     FM222300 27010G20KT P6SM SCT060
     FM230300 28011KT P6SM FEW060
     FM231300 28013G23KT P6SM SCT050=



000
FTUS41 KPHI 221720
TAFACY
TAF
KACY 221720Z 2218/2318 19012G20KT P6SM BKN100
     FM221900 21015G25KT P6SM BKN060
      TEMPO 2219/2223 VRB20G30KT 4SM TSRA BKN030CB
     FM222300 26014G24KT P6SM SCT060
     FM230100 27011KT P6SM FEW060
     FM231200 28014G23KT P6SM SCT050=



000
FTUS41 KPHI 221720
TAFILG
TAF
KILG 221720Z 2218/2318 23020G32KT P6SM BKN060
      TEMPO 2218/2222 4SM TSRA BKN035CB
     FM222200 28014G24KT P6SM SCT060
     FM230000 28012KT P6SM FEW060
     FM231300 28015G25KT P6SM SCT050=



000
FTUS41 KPHI 221720
TAFRDG
TAF
KRDG 221720Z 2218/2318 23015G24KT P6SM OVC060
      TEMPO 2218/2220 VRB20G30KT 4SM TSRA BKN035CB
     FM222000 26012G20KT P6SM SCT060
     FM230000 28011KT P6SM FEW060
     FM231300 18014G23KT P6SM SCT060=



000
FTUS41 KPHI 221720
TAFILG
TAF
KILG 221720Z 2218/2318 23020G32KT P6SM BKN060
      TEMPO 2218/2222 4SM TSRA BKN035CB
     FM222200 28014G24KT P6SM SCT060
     FM230000 28012KT P6SM FEW060
     FM231300 28015G25KT P6SM SCT050=



000
FTUS41 KPHI 221720
TAFMIV
TAF
KMIV 221720Z 2218/2318 22014G24KT P6SM BKN060
      TEMPO 2219/2223 VRB20G30KT 4SM TSRA BKN030CB
     FM222300 27010G20KT P6SM SCT060
     FM230300 28011KT P6SM FEW060
     FM231300 28013G23KT P6SM SCT050=



000
FTUS41 KPHI 221607 AAB
TAFPHL
TAF AMD
KPHL 221607Z 2216/2318 21012G18KT P6SM SCT100
     FM221800 24020G33KT P6SM BKN060
      TEMPO 2218/2222 4SM TSRA BKN035CB
     FM222200 28015G25KT P6SM SCT060
     FM230400 29012KT P6SM SCT060=



000
FTUS41 KPHI 221432 AAA
TAFPHL
TAF AMD
KPHL 221432Z 2215/2318 21012G18KT P6SM SCT100
     FM221800 24020G33KT P6SM BKN060
      TEMPO 2219/2222 5SM TSRA BKN035CB
     FM222200 28015G25KT P6SM SCT060
     FM230400 29012KT P6SM SCT060=



    US Dept of Commerce
    National Oceanic and Atmospheric Administration
    National Weather Service
    1325 East West Highway
    Silver Spring, MD 20910
    Page Author: NWS Internet Services Team
Disclaimer
Information Quality
Credits
Glossary
Privacy Policy
Freedom of Information Act (FOIA)
About Us
Career Opportunities